createdAt,value
2022-08-27T00:03:48.785Z,79.5
2022-08-27T00:08:54.972Z,80.0
2022-08-27T00:14:01.175Z,80.0
2022-08-27T00:19:07.387Z,80.0
2022-08-27T00:24:13.602Z,80.5
2022-08-27T00:29:18.833Z,80.5
2022-08-27T00:34:25.054Z,81.0
2022-08-27T00:39:30.279Z,81.0
2022-08-27T00:44:36.484Z,81.5
2022-08-27T00:49:42.700Z,81.5
2022-08-27T00:54:48.904Z,82.0
2022-08-27T00:59:55.109Z,82.0
2022-08-27T01:05:01.322Z,82.5
2022-08-27T01:10:07.528Z,82.5
2022-08-27T01:15:16.937Z,82.5
2022-08-27T01:20:19.947Z,82.5
2022-08-27T01:25:26.162Z,82.5
2022-08-27T01:30:32.366Z,83.0
2022-08-27T01:35:40.155Z,83.0
2022-08-27T01:40:44.781Z,83.0
2022-08-27T01:45:50.991Z,83.5
2022-08-27T01:50:57.198Z,83.5
2022-08-27T01:56:03.405Z,84.0
2022-08-27T02:01:09.677Z,84.0
2022-08-27T02:06:15.821Z,84.0
2022-08-27T02:11:22.035Z,84.5
2022-08-27T02:16:28.314Z,84.5
2022-08-27T02:21:34.461Z,84.5
2022-08-27T02:26:39.687Z,85.0
2022-08-27T02:31:45.957Z,85.0
2022-08-27T02:36:51.142Z,85.0
2022-08-27T02:41:57.336Z,85.0
2022-08-27T02:47:03.573Z,85.0
2022-08-27T02:52:09.761Z,86.0
2022-08-27T02:57:15.960Z,86.0
2022-08-27T03:02:22.347Z,86.0
2022-08-27T03:07:28.381Z,86.5
2022-08-27T03:12:34.592Z,86.5
2022-08-27T03:17:40.796Z,86.5
2022-08-27T03:22:47.012Z,87.0
2022-08-27T03:27:53.217Z,87.0
2022-08-27T03:32:59.420Z,87.0
2022-08-27T03:38:05.634Z,87.0
2022-08-27T03:43:11.841Z,87.5
2022-08-27T03:48:18.046Z,87.5
2022-08-27T03:53:24.258Z,87.5
2022-08-27T03:58:30.463Z,87.5
2022-08-27T04:03:36.674Z,87.5
2022-08-27T04:08:42.884Z,87.5
2022-08-27T04:13:49.088Z,87.5
2022-08-27T04:18:55.305Z,88.0
2022-08-27T04:24:00.533Z,88.0
2022-08-27T04:29:06.747Z,88.0
2022-08-27T04:34:11.977Z,88.0
2022-08-27T04:39:18.184Z,88.5
2022-08-27T04:44:24.395Z,88.5
2022-08-27T04:49:31.234Z,88.5
2022-08-27T04:54:36.815Z,88.5
2022-08-27T04:59:43.031Z,88.5
2022-08-27T05:04:49.305Z,88.5
2022-08-27T05:09:55.433Z,88.5
2022-08-27T05:15:01.648Z,89.0
2022-08-27T05:20:07.866Z,89.0
2022-08-27T05:25:14.066Z,89.0
2022-08-27T05:30:20.273Z,89.0
2022-08-27T05:35:26.483Z,89.5
2022-08-27T05:40:32.760Z,89.5
2022-08-27T05:45:38.896Z,89.5
2022-08-27T05:50:45.114Z,89.5
2022-08-27T05:55:51.313Z,89.5
2022-08-27T06:01:01.662Z,89.5
2022-08-27T06:06:03.728Z,89.5
2022-08-27T06:11:09.937Z,89.5
2022-08-27T06:16:16.170Z,89.5
2022-08-27T06:21:24.459Z,89.5
2022-08-27T06:26:27.592Z,89.5
2022-08-27T06:31:33.849Z,89.5
2022-08-27T06:36:39.038Z,89.5
2022-08-27T06:41:45.238Z,89.5
2022-08-27T06:46:51.452Z,89.0
2022-08-27T06:51:57.658Z,89.0
2022-08-27T06:57:03.864Z,89.0
2022-08-27T07:02:10.112Z,88.5
2022-08-27T07:07:31.784Z,88.0
2022-08-27T07:12:22.494Z,87.5
2022-08-27T07:17:28.700Z,87.5
2022-08-27T07:22:34.914Z,87.0
2022-08-27T07:27:41.121Z,86.5
2022-08-27T07:32:47.329Z,86.0
2022-08-27T07:37:53.534Z,85.0
2022-08-27T07:42:59.746Z,84.0
2022-08-27T07:48:05.956Z,83.5
2022-08-27T07:53:12.160Z,82.5
2022-08-27T07:58:18.749Z,82.0
2022-08-27T08:03:24.580Z,81.0
2022-08-27T08:08:30.793Z,79.5
2022-08-27T08:13:36.996Z,78.5
2022-08-27T08:18:43.205Z,77.5
2022-08-27T08:23:48.441Z,77.0
2022-08-27T08:28:54.653Z,76.0
2022-08-27T08:34:00.863Z,75.5
2022-08-27T08:39:07.072Z,74.5
2022-08-27T08:44:13.280Z,74.0
2022-08-27T08:49:19.485Z,73.0
2022-08-27T08:54:25.695Z,73.0
2022-08-27T08:59:31.902Z,72.0
2022-08-27T09:04:38.117Z,71.5
2022-08-27T09:09:44.320Z,71.5
2022-08-27T09:14:50.534Z,70.5
2022-08-27T09:19:56.741Z,70.5
2022-08-27T09:25:02.959Z,70.0
2022-08-27T09:30:09.165Z,70.0
2022-08-27T09:35:15.367Z,70.0
2022-08-27T09:40:22.747Z,70.0
2022-08-27T09:45:27.896Z,70.0
2022-08-27T09:50:33.996Z,70.0
2022-08-27T09:55:40.573Z,69.5
2022-08-27T10:00:46.447Z,69.5
2022-08-27T10:05:52.627Z,69.5
2022-08-27T10:10:57.861Z,69.0
2022-08-27T10:16:04.169Z,69.0
2022-08-27T10:21:09.305Z,69.0
2022-08-27T10:26:15.517Z,68.0
2022-08-27T10:31:21.774Z,68.0
2022-08-27T10:36:27.932Z,67.5
2022-08-27T10:41:34.143Z,67.0
2022-08-27T10:46:40.353Z,66.5
2022-08-27T10:51:46.556Z,66.5
2022-08-27T10:57:08.361Z,66.0
2022-08-27T11:01:59.031Z,66.5
2022-08-27T11:07:05.192Z,66.0
2022-08-27T11:12:15.270Z,66.0
2022-08-27T11:17:17.604Z,66.0
2022-08-27T11:22:26.373Z,66.0
2022-08-27T11:27:30.023Z,66.0
2022-08-27T11:32:36.232Z,66.0
2022-08-27T11:37:42.444Z,66.0
2022-08-27T11:42:48.653Z,65.0
2022-08-27T11:47:54.859Z,64.5
2022-08-27T11:53:01.069Z,64.5
2022-08-27T11:58:07.335Z,64.5
2022-08-27T12:03:13.577Z,65.0
2022-08-27T12:08:18.876Z,65.0
2022-08-27T12:13:24.939Z,64.5
2022-08-27T12:18:30.186Z,65.0
2022-08-27T12:23:36.390Z,64.5
2022-08-27T12:28:41.628Z,64.5
2022-08-27T12:33:47.842Z,64.5
2022-08-27T12:38:54.046Z,64.5
2022-08-27T12:44:00.272Z,64.5
2022-08-27T12:49:35.996Z,64.0
2022-08-27T12:54:12.687Z,64.0
2022-08-27T12:59:18.878Z,64.0
2022-08-27T13:04:25.090Z,64.0
2022-08-27T13:09:31.296Z,64.0
2022-08-27T13:14:37.507Z,63.5
2022-08-27T13:19:43.714Z,63.5
2022-08-27T13:24:49.929Z,63.0
2022-08-27T13:29:56.137Z,63.5
2022-08-27T13:35:02.372Z,63.0
2022-08-27T13:40:08.586Z,63.5
2022-08-27T13:45:14.764Z,63.0
2022-08-27T13:50:20.974Z,62.5
2022-08-27T13:55:27.184Z,63.0
2022-08-27T14:00:33.390Z,63.0
2022-08-27T14:05:39.595Z,63.0
2022-08-27T14:10:45.813Z,63.0
2022-08-27T14:15:52.050Z,63.0
2022-08-27T14:20:57.255Z,62.5
2022-08-27T14:26:03.469Z,63.5
2022-08-27T14:31:09.829Z,63.0
2022-08-27T14:36:14.911Z,63.5
2022-08-27T14:41:21.671Z,63.5
2022-08-27T14:46:27.426Z,63.5
2022-08-27T14:51:33.554Z,63.0
2022-08-27T14:56:39.748Z,63.0
2022-08-27T15:01:46.031Z,63.5
2022-08-27T15:06:52.167Z,63.5
2022-08-27T15:11:58.376Z,63.5
2022-08-27T15:17:33.404Z,63.5
2022-08-27T15:22:13.928Z,63.5
2022-08-27T15:27:17.027Z,63.5
2022-08-27T15:32:23.214Z,63.5
2022-08-27T15:37:29.433Z,63.5
2022-08-27T15:42:35.658Z,64.0
2022-08-27T15:47:41.837Z,64.0
2022-08-27T15:57:54.254Z,64.5
2022-08-27T16:03:00.510Z,64.5
2022-08-27T16:08:06.682Z,64.5
2022-08-27T16:13:12.887Z,64.5
2022-08-27T16:18:19.096Z,65.0
2022-08-27T16:23:25.304Z,65.0
2022-08-27T16:28:30.541Z,65.0
2022-08-27T16:33:36.749Z,65.0
2022-08-27T16:38:41.985Z,65.5
2022-08-27T16:43:48.212Z,65.5
2022-08-27T16:49:00.959Z,66.0
2022-08-27T16:54:00.615Z,66.0
2022-08-27T16:59:06.821Z,66.5
2022-08-27T17:04:18.394Z,66.5
2022-08-27T17:09:19.240Z,66.5
2022-08-27T17:14:25.451Z,66.5
2022-08-27T17:19:31.653Z,66.5
2022-08-27T17:24:37.870Z,66.5
2022-08-27T17:29:44.077Z,67.0
2022-08-27T17:34:50.281Z,67.0
2022-08-27T17:39:56.517Z,67.5
2022-08-27T17:45:02.776Z,67.5
2022-08-27T17:50:08.917Z,68.0
2022-08-27T17:55:15.123Z,68.0
2022-08-27T18:00:21.336Z,68.0
2022-08-27T18:05:27.592Z,68.0
2022-08-27T18:10:33.748Z,68.0
2022-08-27T18:15:39.956Z,68.0
2022-08-27T18:20:46.171Z,68.5
2022-08-27T18:30:57.766Z,68.5
2022-08-27T18:36:02.848Z,68.5
2022-08-27T18:41:09.059Z,68.5
2022-08-27T18:46:14.355Z,69.0
2022-08-27T18:51:20.503Z,69.0
2022-08-27T18:56:26.713Z,69.0
2022-08-27T19:01:33.075Z,69.0
2022-08-27T19:06:39.136Z,69.0
2022-08-27T19:11:45.344Z,69.0
2022-08-27T19:16:51.585Z,69.0
2022-08-27T19:21:57.756Z,69.0
2022-08-27T19:27:03.967Z,69.0
2022-08-27T19:32:10.214Z,69.0
2022-08-27T19:37:16.391Z,69.0
2022-08-27T19:42:22.590Z,69.0
2022-08-27T19:47:28.799Z,69.5
2022-08-27T19:52:35.009Z,69.5
2022-08-27T19:57:41.227Z,69.5
2022-08-27T20:02:47.425Z,69.5
2022-08-27T20:07:53.642Z,70.0
2022-08-27T20:12:59.845Z,70.0
2022-08-27T20:18:06.082Z,70.0
2022-08-27T20:23:12.262Z,70.0
2022-08-27T20:28:38.488Z,70.0
2022-08-27T20:33:23.714Z,70.5
2022-08-27T20:38:29.935Z,70.5
2022-08-27T20:43:35.153Z,70.5
2022-08-27T20:48:41.364Z,70.5
2022-08-27T20:53:47.569Z,71.0
2022-08-27T20:58:53.780Z,71.0
2022-08-27T21:03:59.988Z,71.5
2022-08-27T21:09:06.199Z,71.5
2022-08-27T21:14:12.417Z,72.0
2022-08-27T21:19:18.613Z,72.0
2022-08-27T21:24:24.825Z,72.5
2022-08-27T21:29:31.032Z,72.5
2022-08-27T21:34:37.244Z,72.5
2022-08-27T21:39:43.447Z,73.0
2022-08-27T21:44:49.656Z,73.0
2022-08-27T21:49:55.870Z,73.0
2022-08-27T21:55:02.078Z,73.0
2022-08-27T22:00:08.311Z,73.5
2022-08-27T22:05:14.492Z,74.0
2022-08-27T22:10:20.697Z,74.0
2022-08-27T22:15:26.909Z,74.0
2022-08-27T22:20:33.114Z,74.5
2022-08-27T22:25:39.326Z,74.5
2022-08-27T22:30:44.559Z,75.0
2022-08-27T22:35:50.771Z,75.0
2022-08-27T22:40:56.989Z,75.5
2022-08-27T22:46:03.192Z,75.5
2022-08-27T22:51:09.401Z,75.5
2022-08-27T22:56:15.610Z,76.0
2022-08-27T23:01:21.840Z,76.5
2022-08-27T23:06:28.025Z,76.5
2022-08-27T23:11:34.230Z,76.5
2022-08-27T23:16:40.447Z,77.0
2022-08-27T23:21:46.646Z,77.0
2022-08-27T23:26:52.856Z,77.0
2022-08-27T23:31:59.063Z,77.0
2022-08-27T23:37:05.273Z,77.5
2022-08-27T23:42:11.480Z,78.0
2022-08-27T23:47:17.704Z,78.0
2022-08-27T23:52:23.896Z,78.5
2022-08-27T23:57:30.102Z,78.5
